DRRT

Tahoua Airport

Tahoua, Niger
METAR DRRT 211800Z 28006KT 4000 DU NSC 36/M00 Q1005
Observed Flight Rules
Feb-21 @ 18:00 UTC (11 hours ago) Instrument Flight Rules
Wind Visibility Clouds Conditions
280° at 6 knots 4,007 meters
  • Clear skies
  • Dust
Temperatures Readings
Current 36°C / 97°F
Dewpoint 0°C / 32°F
Humidity 10%
Altimeter 29.68" Hg
Pressure 1005 hPa
Elevation 391
METAR DRRT 211800Z 28006KT 4000 DU NSC 36/M00 Q1005
Observed Flight Rules
Feb-21 @ 18:00 UTC
(11 hours ago)
IFR
Wind Visibility
280° at 6 knots 4,007 meters
Clouds
  • Clear skies
Conditions
  • Dust
Temperature Dewpoint
36°C / 97°F 0°C / 32°F
Humidity Altimeter Pressure
10% 29.68" Hg 1005 hPa